Terminal Aerodrome Forecast
Issued by NWS Paducah, KY

Home | Current Version | Previous Version | Text Only | Print | Product List | Glossary On
Versions: 1 2 3 4 5 6 7 8 9 10 11 12 13 14 15 16 17 18 19 20 21 22
989
FTUS43 KPAH 240703 AAA
TAFPAH
TAF AMD
KPAH 240703Z 2407/2506 VRB03KT 5SM BR OVC006
     FM241000 35007KT 6SM BR OVC008
     FM241500 35010KT P6SM OVC010
     FM241700 34010KT P6SM VCSH OVC025
     FM242300 33006KT P6SM BKN035=

USA.gov is the U.S. government's official web portal to all federal, state and local government web resources and services.